createdAt,value
2022-09-07T00:03:01.124Z,20.28
2022-09-07T00:07:59.254Z,20.38
2022-09-07T00:12:57.414Z,19.89
2022-09-07T00:17:54.884Z,19.90
2022-09-07T00:22:54.972Z,20.53
2022-09-07T00:27:53.473Z,19.72
2022-09-07T00:32:52.283Z,20.00
2022-09-07T00:37:49.549Z,20.43
2022-09-07T00:42:46.705Z,20.33
2022-09-07T00:47:52.590Z,20.37
2022-09-07T00:52:57.232Z,20.27
2022-09-07T00:57:56.542Z,20.50
2022-09-07T01:02:57.218Z,20.09
2022-09-07T01:07:58.997Z,19.76
2022-09-07T01:13:00.345Z,19.98
2022-09-07T01:18:05.884Z,20.20
2022-09-07T01:23:27.329Z,19.96
2022-09-07T01:28:28.075Z,19.62
2022-09-07T01:33:43.055Z,20.06
2022-09-07T01:38:45.348Z,19.97
2022-09-07T01:43:53.167Z,19.63
2022-09-07T01:48:54.011Z,19.42
2022-09-07T01:53:58.188Z,19.90
2022-09-07T01:59:08.268Z,19.06
2022-09-07T02:04:11.015Z,19.65
2022-09-07T02:09:15.666Z,19.40
2022-09-07T02:14:22.875Z,20.00
2022-09-07T02:19:27.207Z,19.55
2022-09-07T02:24:39.359Z,19.32
2022-09-07T02:29:41.384Z,19.80
2022-09-07T02:34:38.956Z,19.65
2022-09-07T02:39:53.223Z,20.04
2022-09-07T02:44:52.677Z,20.01
2022-09-07T02:50:12.650Z,19.38
2022-09-07T02:55:20.682Z,19.80
2022-09-07T03:00:26.493Z,19.85
2022-09-07T03:05:31.993Z,19.47
2022-09-07T03:37:17.208Z,19.23
2022-09-07T03:42:46.304Z,19.43
2022-09-07T03:47:48.806Z,18.88
2022-09-07T03:53:07.258Z,19.36
2022-09-07T03:58:31.973Z,19.17
2022-09-07T04:03:40.088Z,19.35
2022-09-07T04:20:37.118Z,19.46
2022-09-07T04:27:02.161Z,19.56
2022-09-07T04:32:30.750Z,19.25
2022-09-07T04:43:55.220Z,19.76
2022-09-07T04:49:08.004Z,19.85
2022-09-07T04:54:41.621Z,20.15
2022-09-07T04:59:55.019Z,20.25
2022-09-07T05:05:30.849Z,20.14
2022-09-07T05:10:37.330Z,20.13
2022-09-07T05:15:38.332Z,20.00
2022-09-07T05:20:37.950Z,19.96
2022-09-07T05:26:27.090Z,20.71
2022-09-07T05:55:30.415Z,31.45
2022-09-07T06:00:40.578Z,31.94
2022-09-07T06:05:53.954Z,32.82
2022-09-07T06:17:51.211Z,34.99
2022-09-07T06:30:13.369Z,37.31
2022-09-07T08:13:36.431Z,38.46
2022-09-07T10:17:35.824Z,41.82
2022-09-07T10:37:31.701Z,39.64
2022-09-07T10:51:13.659Z,35.21
2022-09-07T10:57:01.978Z,34.12
2022-09-07T11:14:58.023Z,32.44
2022-09-07T11:48:07.889Z,31.72
2022-09-07T11:54:05.681Z,30.80
2022-09-07T12:13:52.971Z,30.32
2022-09-07T12:19:37.346Z,30.55
2022-09-07T12:26:24.217Z,30.30
2022-09-07T15:54:23.562Z,27.24
2022-09-07T15:59:37.230Z,26.81
2022-09-07T16:11:04.474Z,27.03
2022-09-07T16:16:05.856Z,26.54
2022-09-07T16:27:11.142Z,26.43
2022-09-07T16:39:32.668Z,26.46
2022-09-07T16:44:40.547Z,26.07
2022-09-07T16:49:58.111Z,25.74
2022-09-07T17:45:43.222Z,25.45
2022-09-07T18:03:06.380Z,25.29
2022-09-07T18:08:13.836Z,25.60
2022-09-07T18:25:44.316Z,24.97
2022-09-07T18:31:21.253Z,24.82
2022-09-07T18:42:40.549Z,24.46
2022-09-07T18:47:49.068Z,24.42
2022-09-07T18:53:16.680Z,24.45
2022-09-07T19:11:42.250Z,24.49
2022-09-07T19:17:39.144Z,24.21
2022-09-07T19:22:40.131Z,24.16
2022-09-07T19:28:18.045Z,24.39
2022-09-07T19:33:50.000Z,23.96
2022-09-07T19:39:00.857Z,24.15
2022-09-07T19:45:00.874Z,23.78
2022-09-07T19:50:52.767Z,24.13
2022-09-07T19:56:14.463Z,23.96
2022-09-07T20:13:53.645Z,23.40
2022-09-07T20:19:24.453Z,23.40
2022-09-07T20:25:25.482Z,23.22
2022-09-07T20:31:39.235Z,23.46
2022-09-07T20:49:32.535Z,23.51
2022-09-07T20:55:10.345Z,23.47
2022-09-07T21:00:17.533Z,23.44
2022-09-07T21:11:01.985Z,23.31
2022-09-07T21:16:11.988Z,22.80
2022-09-07T21:21:44.341Z,23.08
2022-09-07T21:27:09.155Z,22.77
2022-09-07T21:32:37.525Z,22.61
2022-09-07T21:37:40.748Z,23.07
2022-09-07T21:42:43.342Z,22.56
2022-09-07T21:48:09.392Z,22.48
2022-09-07T21:53:31.822Z,22.82
2022-09-07T21:59:09.622Z,22.44
2022-09-07T22:04:33.459Z,22.67
2022-09-07T22:09:48.030Z,22.72
2022-09-07T22:14:51.853Z,22.34
2022-09-07T22:20:21.090Z,22.39
2022-09-07T22:25:27.664Z,22.49
2022-09-07T22:30:34.262Z,22.00
2022-09-07T22:36:01.828Z,22.31
2022-09-07T22:41:09.542Z,21.98
2022-09-07T22:46:25.583Z,22.05
2022-09-07T22:51:29.344Z,22.20
2022-09-07T22:56:33.026Z,22.32
2022-09-07T23:01:48.898Z,22.42
2022-09-07T23:06:52.692Z,22.40
2022-09-07T23:12:01.835Z,21.86
2022-09-07T23:17:27.911Z,21.84
2022-09-07T23:22:42.413Z,21.78
2022-09-07T23:27:49.203Z,21.59
2022-09-07T23:32:52.813Z,21.86
2022-09-07T23:38:05.035Z,21.41
2022-09-07T23:43:16.063Z,21.44
2022-09-07T23:48:14.864Z,21.43
2022-09-07T23:53:13.506Z,21.59
2022-09-07T23:58:33.249Z,21.49
